< < Back
Terminal Aerodrome Forecast


Current Version              Previous Versions:   1  2  3  4  5  6  7  8  9  

Terminal Aerodrome Forecast

263
FTUS42 KMLB 300500
TAFDAB
TAF
KDAB 300538Z 3006/3106 22003KT P6SM SCT150
     FM301400 14005KT P6SM SCT035
     FM301800 10008KT P6SM VCTS SCT040CB BKN250
     FM302100 12005KT P6SM SCT060 BKN100
     FM310000 14003KT P6SM SCT100=



Latest METAR

268
SAUS80 KWBC 310800
MTRDAB
METAR KDAB 310753Z 28005KT 10SM CLR 24/24 A3012 RMK AO2 SLP200
T02440239


USA.gov is the U.S. government's official web portal to all federal, state and local government web resources and services.